sensor_id;sensor_type;location;lat;lon;timestamp;temperature;humidity
11083;DHT22;5595;50.186;8.468;2022-07-29T00:01:17;21.60;58.70
11083;DHT22;5595;50.186;8.468;2022-07-29T00:03:44;21.50;59.00
11083;DHT22;5595;50.186;8.468;2022-07-29T00:06:11;21.50;59.00
11083;DHT22;5595;50.186;8.468;2022-07-29T00:08:39;21.50;59.00
11083;DHT22;5595;50.186;8.468;2022-07-29T00:11:06;21.50;59.00
11083;DHT22;5595;50.186;8.468;2022-07-29T00:13:33;21.50;59.20
11083;DHT22;5595;50.186;8.468;2022-07-29T00:16:00;21.50;59.40
11083;DHT22;5595;50.186;8.468;2022-07-29T00:18:27;21.50;59.30
11083;DHT22;5595;50.186;8.468;2022-07-29T00:20:54;21.40;59.70
11083;DHT22;5595;50.186;8.468;2022-07-29T00:23:22;21.40;59.90
11083;DHT22;5595;50.186;8.468;2022-07-29T00:25:50;21.40;61.40
11083;DHT22;5595;50.186;8.468;2022-07-29T00:28:17;21.30;65.10
11083;DHT22;5595;50.186;8.468;2022-07-29T00:30:44;21.10;69.80
11083;DHT22;5595;50.186;8.468;2022-07-29T00:33:11;20.70;74.00
11083;DHT22;5595;50.186;8.468;2022-07-29T00:35:38;20.30;78.30
11083;DHT22;5595;50.186;8.468;2022-07-29T00:38:10;19.80;81.10
11083;DHT22;5595;50.186;8.468;2022-07-29T00:40:37;19.60;83.00
11083;DHT22;5595;50.186;8.468;2022-07-29T00:43:06;19.40;83.80
11083;DHT22;5595;50.186;8.468;2022-07-29T00:45:33;19.30;85.60
11083;DHT22;5595;50.186;8.468;2022-07-29T00:48:00;19.10;87.80
11083;DHT22;5595;50.186;8.468;2022-07-29T00:50:27;19.00;89.50
11083;DHT22;5595;50.186;8.468;2022-07-29T00:52:54;18.80;90.40
11083;DHT22;5595;50.186;8.468;2022-07-29T00:55:21;18.70;91.30
11083;DHT22;5595;50.186;8.468;2022-07-29T00:57:48;18.60;92.20
11083;DHT22;5595;50.186;8.468;2022-07-29T01:00:19;18.50;92.50
11083;DHT22;5595;50.186;8.468;2022-07-29T01:02:46;18.50;93.30
11083;DHT22;5595;50.186;8.468;2022-07-29T01:05:15;18.40;94.20
11083;DHT22;5595;50.186;8.468;2022-07-29T01:07:47;18.30;95.10
11083;DHT22;5595;50.186;8.468;2022-07-29T01:10:16;18.40;95.70
11083;DHT22;5595;50.186;8.468;2022-07-29T01:12:43;18.30;96.50
11083;DHT22;5595;50.186;8.468;2022-07-29T01:15:13;18.40;97.30
11083;DHT22;5595;50.186;8.468;2022-07-29T01:17:45;18.20;97.70
11083;DHT22;5595;50.186;8.468;2022-07-29T01:20:20;18.20;98.30
11083;DHT22;5595;50.186;8.468;2022-07-29T01:23:10;18.10;99.00
11083;DHT22;5595;50.186;8.468;2022-07-29T01:25:59;18.10;99.80
11083;DHT22;5595;50.186;8.468;2022-07-29T01:31:45;18.10;99.90
11083;DHT22;5595;50.186;8.468;2022-07-29T01:34:18;18.10;99.90
11083;DHT22;5595;50.186;8.468;2022-07-29T01:36:50;18.10;99.90
11083;DHT22;5595;50.186;8.468;2022-07-29T01:39:26;18.10;99.90
11083;DHT22;5595;50.186;8.468;2022-07-29T01:41:58;18.10;99.90
11083;DHT22;5595;50.186;8.468;2022-07-29T01:44:35;18.20;99.90
11083;DHT22;5595;50.186;8.468;2022-07-29T01:47:08;18.20;99.90
11083;DHT22;5595;50.186;8.468;2022-07-29T01:49:40;18.20;99.90
11083;DHT22;5595;50.186;8.468;2022-07-29T01:52:13;18.20;99.90
11083;DHT22;5595;50.186;8.468;2022-07-29T01:54:44;18.20;99.90
11083;DHT22;5595;50.186;8.468;2022-07-29T01:57:14;18.20;99.90
11083;DHT22;5595;50.186;8.468;2022-07-29T01:59:45;18.20;99.90
11083;DHT22;5595;50.186;8.468;2022-07-29T02:02:14;18.20;99.90
11083;DHT22;5595;50.186;8.468;2022-07-29T02:04:43;18.20;99.90
11083;DHT22;5595;50.186;8.468;2022-07-29T02:07:19;18.20;99.90
11083;DHT22;5595;50.186;8.468;2022-07-29T02:09:47;18.20;99.90
11083;DHT22;5595;50.186;8.468;2022-07-29T02:12:18;18.30;99.90
11083;DHT22;5595;50.186;8.468;2022-07-29T02:14:48;18.40;99.90
11083;DHT22;5595;50.186;8.468;2022-07-29T02:17:20;18.40;99.90
11083;DHT22;5595;50.186;8.468;2022-07-29T02:19:47;18.50;99.90
11083;DHT22;5595;50.186;8.468;2022-07-29T02:22:16;18.50;99.90
11083;DHT22;5595;50.186;8.468;2022-07-29T02:24:46;18.60;99.90
11083;DHT22;5595;50.186;8.468;2022-07-29T02:27:15;18.60;99.90
11083;DHT22;5595;50.186;8.468;2022-07-29T02:29:43;18.70;99.90
11083;DHT22;5595;50.186;8.468;2022-07-29T02:32:13;18.60;99.90
11083;DHT22;5595;50.186;8.468;2022-07-29T02:34:43;18.50;99.90
11083;DHT22;5595;50.186;8.468;2022-07-29T02:37:10;18.50;99.90
11083;DHT22;5595;50.186;8.468;2022-07-29T02:39:40;18.40;99.90
11083;DHT22;5595;50.186;8.468;2022-07-29T02:42:13;18.30;99.90
11083;DHT22;5595;50.186;8.468;2022-07-29T02:44:41;18.20;99.90
11083;DHT22;5595;50.186;8.468;2022-07-29T02:47:15;18.10;99.90
11083;DHT22;5595;50.186;8.468;2022-07-29T02:49:48;17.90;99.90
11083;DHT22;5595;50.186;8.468;2022-07-29T02:52:22;17.80;99.90
11083;DHT22;5595;50.186;8.468;2022-07-29T02:54:53;17.70;99.90
11083;DHT22;5595;50.186;8.468;2022-07-29T02:57:26;17.70;99.90
11083;DHT22;5595;50.186;8.468;2022-07-29T02:59:57;17.50;99.90
11083;DHT22;5595;50.186;8.468;2022-07-29T03:02:27;17.40;99.90
11083;DHT22;5595;50.186;8.468;2022-07-29T03:04:55;17.20;99.90
11083;DHT22;5595;50.186;8.468;2022-07-29T03:07:24;17.20;99.90
11083;DHT22;5595;50.186;8.468;2022-07-29T03:09:52;17.10;99.90
11083;DHT22;5595;50.186;8.468;2022-07-29T03:12:20;17.00;99.90
11083;DHT22;5595;50.186;8.468;2022-07-29T03:14:47;17.00;99.90
11083;DHT22;5595;50.186;8.468;2022-07-29T03:17:15;17.00;99.90
11083;DHT22;5595;50.186;8.468;2022-07-29T03:19:43;17.00;99.90
11083;DHT22;5595;50.186;8.468;2022-07-29T03:22:11;16.90;99.90
11083;DHT22;5595;50.186;8.468;2022-07-29T03:24:38;16.80;99.90
11083;DHT22;5595;50.186;8.468;2022-07-29T03:27:05;16.70;99.90
11083;DHT22;5595;50.186;8.468;2022-07-29T03:29:32;16.80;99.90
11083;DHT22;5595;50.186;8.468;2022-07-29T03:32:01;16.80;99.90
11083;DHT22;5595;50.186;8.468;2022-07-29T03:34:28;16.80;99.90
11083;DHT22;5595;50.186;8.468;2022-07-29T03:36:56;16.80;99.90
11083;DHT22;5595;50.186;8.468;2022-07-29T03:39:26;16.90;99.90
11083;DHT22;5595;50.186;8.468;2022-07-29T03:41:55;16.90;99.90
11083;DHT22;5595;50.186;8.468;2022-07-29T03:44:26;16.80;99.90
11083;DHT22;5595;50.186;8.468;2022-07-29T03:46:55;16.70;99.90
11083;DHT22;5595;50.186;8.468;2022-07-29T03:49:24;16.50;99.90
11083;DHT22;5595;50.186;8.468;2022-07-29T03:51:53;16.40;99.90
11083;DHT22;5595;50.186;8.468;2022-07-29T03:54:21;16.30;99.90
11083;DHT22;5595;50.186;8.468;2022-07-29T03:56:52;16.10;99.90
11083;DHT22;5595;50.186;8.468;2022-07-29T03:59:20;16.10;99.90
11083;DHT22;5595;50.186;8.468;2022-07-29T04:02:01;15.90;99.90
11083;DHT22;5595;50.186;8.468;2022-07-29T04:04:30;15.80;99.90
11083;DHT22;5595;50.186;8.468;2022-07-29T04:06:58;15.70;99.90
11083;DHT22;5595;50.186;8.468;2022-07-29T04:09:27;15.70;99.90
11083;DHT22;5595;50.186;8.468;2022-07-29T04:11:53;15.60;99.90
11083;DHT22;5595;50.186;8.468;2022-07-29T04:14:20;15.60;99.90
11083;DHT22;5595;50.186;8.468;2022-07-29T04:16:47;15.50;99.90
11083;DHT22;5595;50.186;8.468;2022-07-29T04:19:14;15.40;99.90
11083;DHT22;5595;50.186;8.468;2022-07-29T04:21:41;15.40;99.90
11083;DHT22;5595;50.186;8.468;2022-07-29T04:24:10;15.40;99.90
11083;DHT22;5595;50.186;8.468;2022-07-29T04:26:39;15.30;99.90
11083;DHT22;5595;50.186;8.468;2022-07-29T04:29:05;15.30;99.90
11083;DHT22;5595;50.186;8.468;2022-07-29T04:31:32;15.30;99.90
11083;DHT22;5595;50.186;8.468;2022-07-29T04:33:59;15.20;99.90
11083;DHT22;5595;50.186;8.468;2022-07-29T04:36:28;15.20;99.90
11083;DHT22;5595;50.186;8.468;2022-07-29T04:38:55;15.20;99.90
11083;DHT22;5595;50.186;8.468;2022-07-29T04:41:22;15.10;99.90
11083;DHT22;5595;50.186;8.468;2022-07-29T04:43:50;15.10;99.90
11083;DHT22;5595;50.186;8.468;2022-07-29T04:46:17;15.20;99.90
11083;DHT22;5595;50.186;8.468;2022-07-29T04:48:45;15.10;99.90
11083;DHT22;5595;50.186;8.468;2022-07-29T04:51:13;15.20;99.90
11083;DHT22;5595;50.186;8.468;2022-07-29T04:53:40;15.30;99.90
11083;DHT22;5595;50.186;8.468;2022-07-29T04:56:06;15.20;99.90
11083;DHT22;5595;50.186;8.468;2022-07-29T04:58:34;15.30;99.90
11083;DHT22;5595;50.186;8.468;2022-07-29T05:01:06;15.30;99.90
11083;DHT22;5595;50.186;8.468;2022-07-29T05:03:33;15.30;99.90
11083;DHT22;5595;50.186;8.468;2022-07-29T05:06:00;15.30;99.90
11083;DHT22;5595;50.186;8.468;2022-07-29T05:08:27;15.30;99.90
11083;DHT22;5595;50.186;8.468;2022-07-29T05:10:54;15.30;99.90
11083;DHT22;5595;50.186;8.468;2022-07-29T05:13:21;15.40;99.90
11083;DHT22;5595;50.186;8.468;2022-07-29T05:15:48;15.40;99.90
11083;DHT22;5595;50.186;8.468;2022-07-29T05:18:16;15.40;99.90
11083;DHT22;5595;50.186;8.468;2022-07-29T05:20:47;15.50;99.90
11083;DHT22;5595;50.186;8.468;2022-07-29T05:23:14;15.50;99.90
11083;DHT22;5595;50.186;8.468;2022-07-29T05:25:41;15.50;99.90
11083;DHT22;5595;50.186;8.468;2022-07-29T05:28:08;15.60;99.90
11083;DHT22;5595;50.186;8.468;2022-07-29T05:30:35;15.70;99.90
11083;DHT22;5595;50.186;8.468;2022-07-29T05:33:02;15.80;99.90
11083;DHT22;5595;50.186;8.468;2022-07-29T05:35:30;15.90;99.90
11083;DHT22;5595;50.186;8.468;2022-07-29T05:37:57;16.00;99.90
11083;DHT22;5595;50.186;8.468;2022-07-29T05:40:24;16.10;99.90
11083;DHT22;5595;50.186;8.468;2022-07-29T05:42:51;16.10;99.90
11083;DHT22;5595;50.186;8.468;2022-07-29T05:45:18;16.20;99.90
11083;DHT22;5595;50.186;8.468;2022-07-29T05:47:45;16.20;99.90
11083;DHT22;5595;50.186;8.468;2022-07-29T05:50:12;16.30;99.90
11083;DHT22;5595;50.186;8.468;2022-07-29T05:52:44;16.40;99.90
11083;DHT22;5595;50.186;8.468;2022-07-29T05:55:11;16.50;99.90
11083;DHT22;5595;50.186;8.468;2022-07-29T05:57:38;16.70;99.90
11083;DHT22;5595;50.186;8.468;2022-07-29T06:00:06;16.80;99.90
11083;DHT22;5595;50.186;8.468;2022-07-29T06:02:33;17.00;99.90
11083;DHT22;5595;50.186;8.468;2022-07-29T06:05:00;17.10;99.90
11083;DHT22;5595;50.186;8.468;2022-07-29T06:07:29;17.20;99.90
11083;DHT22;5595;50.186;8.468;2022-07-29T06:09:59;17.30;99.90
11083;DHT22;5595;50.186;8.468;2022-07-29T06:12:26;17.50;99.90
11083;DHT22;5595;50.186;8.468;2022-07-29T06:14:53;17.70;99.90
11083;DHT22;5595;50.186;8.468;2022-07-29T06:17:20;17.80;99.90
11083;DHT22;5595;50.186;8.468;2022-07-29T06:19:46;17.90;99.90
11083;DHT22;5595;50.186;8.468;2022-07-29T06:22:15;17.90;99.90
11083;DHT22;5595;50.186;8.468;2022-07-29T06:24:42;18.10;99.90
11083;DHT22;5595;50.186;8.468;2022-07-29T06:27:11;18.20;99.90
11083;DHT22;5595;50.186;8.468;2022-07-29T06:29:37;18.30;99.90
11083;DHT22;5595;50.186;8.468;2022-07-29T06:32:05;18.50;99.90
11083;DHT22;5595;50.186;8.468;2022-07-29T06:34:32;18.70;99.90
11083;DHT22;5595;50.186;8.468;2022-07-29T06:36:59;18.90;99.90
11083;DHT22;5595;50.186;8.468;2022-07-29T06:39:26;19.20;99.90
11083;DHT22;5595;50.186;8.468;2022-07-29T06:41:53;19.40;99.90
11083;DHT22;5595;50.186;8.468;2022-07-29T06:44:21;19.60;99.90
11083;DHT22;5595;50.186;8.468;2022-07-29T06:46:48;19.80;99.90
11083;DHT22;5595;50.186;8.468;2022-07-29T06:49:17;19.80;99.90
11083;DHT22;5595;50.186;8.468;2022-07-29T06:51:43;19.80;99.90
11083;DHT22;5595;50.186;8.468;2022-07-29T06:54:10;19.90;99.90
11083;DHT22;5595;50.186;8.468;2022-07-29T06:56:37;19.90;99.90
11083;DHT22;5595;50.186;8.468;2022-07-29T06:59:08;20.00;99.90
11083;DHT22;5595;50.186;8.468;2022-07-29T07:01:37;20.10;99.90
11083;DHT22;5595;50.186;8.468;2022-07-29T07:04:04;20.20;99.90
11083;DHT22;5595;50.186;8.468;2022-07-29T07:06:34;20.40;99.90
11083;DHT22;5595;50.186;8.468;2022-07-29T07:09:02;20.50;99.90
11083;DHT22;5595;50.186;8.468;2022-07-29T07:11:29;20.60;99.90
11083;DHT22;5595;50.186;8.468;2022-07-29T07:13:56;20.80;99.90
11083;DHT22;5595;50.186;8.468;2022-07-29T07:16:23;20.90;99.90
11083;DHT22;5595;50.186;8.468;2022-07-29T07:18:51;21.00;99.90
11083;DHT22;5595;50.186;8.468;2022-07-29T07:21:18;21.20;99.90
11083;DHT22;5595;50.186;8.468;2022-07-29T07:23:45;21.40;99.90
11083;DHT22;5595;50.186;8.468;2022-07-29T07:26:12;21.60;99.90
11083;DHT22;5595;50.186;8.468;2022-07-29T07:28:39;21.80;99.90
11083;DHT22;5595;50.186;8.468;2022-07-29T07:31:06;21.90;99.90
11083;DHT22;5595;50.186;8.468;2022-07-29T07:33:33;22.00;99.90
11083;DHT22;5595;50.186;8.468;2022-07-29T07:36:01;22.20;99.90
11083;DHT22;5595;50.186;8.468;2022-07-29T07:38:28;22.30;99.90
11083;DHT22;5595;50.186;8.468;2022-07-29T07:40:55;22.40;99.90
11083;DHT22;5595;50.186;8.468;2022-07-29T07:43:22;22.50;99.90
11083;DHT22;5595;50.186;8.468;2022-07-29T07:45:49;22.70;99.90
11083;DHT22;5595;50.186;8.468;2022-07-29T07:48:16;22.70;99.50
11083;DHT22;5595;50.186;8.468;2022-07-29T07:50:43;22.80;98.40
11083;DHT22;5595;50.186;8.468;2022-07-29T07:53:25;22.90;98.00
11083;DHT22;5595;50.186;8.468;2022-07-29T07:55:53;23.00;97.70
11083;DHT22;5595;50.186;8.468;2022-07-29T07:58:20;23.00;97.10
11083;DHT22;5595;50.186;8.468;2022-07-29T08:00:47;23.10;96.50
11083;DHT22;5595;50.186;8.468;2022-07-29T08:03:14;23.30;96.60
11083;DHT22;5595;50.186;8.468;2022-07-29T08:05:41;23.40;95.70
11083;DHT22;5595;50.186;8.468;2022-07-29T08:08:08;23.40;95.20
11083;DHT22;5595;50.186;8.468;2022-07-29T08:10:36;23.50;95.30
11083;DHT22;5595;50.186;8.468;2022-07-29T08:13:19;23.50;94.00
11083;DHT22;5595;50.186;8.468;2022-07-29T08:15:47;23.40;94.70
11083;DHT22;5595;50.186;8.468;2022-07-29T08:18:23;23.40;94.60
11083;DHT22;5595;50.186;8.468;2022-07-29T08:20:50;23.50;94.20
11083;DHT22;5595;50.186;8.468;2022-07-29T08:23:17;23.60;93.90
11083;DHT22;5595;50.186;8.468;2022-07-29T08:25:46;23.70;93.50
11083;DHT22;5595;50.186;8.468;2022-07-29T08:28:13;23.80;94.10
11083;DHT22;5595;50.186;8.468;2022-07-29T08:30:40;23.90;93.40
11083;DHT22;5595;50.186;8.468;2022-07-29T08:33:07;23.90;93.10
11083;DHT22;5595;50.186;8.468;2022-07-29T08:35:34;24.10;93.10
11083;DHT22;5595;50.186;8.468;2022-07-29T08:38:01;24.10;92.90
11083;DHT22;5595;50.186;8.468;2022-07-29T08:40:29;24.00;92.80
11083;DHT22;5595;50.186;8.468;2022-07-29T08:42:57;23.90;91.70
11083;DHT22;5595;50.186;8.468;2022-07-29T08:45:25;23.80;91.90
11083;DHT22;5595;50.186;8.468;2022-07-29T08:47:52;23.90;91.60
11083;DHT22;5595;50.186;8.468;2022-07-29T08:50:19;24.00;92.30
11083;DHT22;5595;50.186;8.468;2022-07-29T08:52:50;24.10;92.20
11083;DHT22;5595;50.186;8.468;2022-07-29T08:55:18;24.20;91.80
11083;DHT22;5595;50.186;8.468;2022-07-29T08:57:45;24.30;91.60
11083;DHT22;5595;50.186;8.468;2022-07-29T09:00:14;24.40;90.80
11083;DHT22;5595;50.186;8.468;2022-07-29T09:02:47;24.40;90.30
11083;DHT22;5595;50.186;8.468;2022-07-29T09:05:17;24.40;89.60
11083;DHT22;5595;50.186;8.468;2022-07-29T09:07:45;24.30;90.20
11083;DHT22;5595;50.186;8.468;2022-07-29T09:10:13;24.40;89.90
11083;DHT22;5595;50.186;8.468;2022-07-29T09:12:40;24.50;90.00
11083;DHT22;5595;50.186;8.468;2022-07-29T09:15:08;24.50;88.90
11083;DHT22;5595;50.186;8.468;2022-07-29T09:17:43;24.60;88.00
11083;DHT22;5595;50.186;8.468;2022-07-29T09:20:12;24.70;89.40
11083;DHT22;5595;50.186;8.468;2022-07-29T09:22:39;24.90;88.80
11083;DHT22;5595;50.186;8.468;2022-07-29T09:25:06;24.90;88.90
11083;DHT22;5595;50.186;8.468;2022-07-29T09:27:33;25.10;89.10
11083;DHT22;5595;50.186;8.468;2022-07-29T09:30:03;25.20;88.40
11083;DHT22;5595;50.186;8.468;2022-07-29T09:32:31;25.30;87.50
11083;DHT22;5595;50.186;8.468;2022-07-29T09:35:20;25.50;87.00
11083;DHT22;5595;50.186;8.468;2022-07-29T09:37:47;25.30;86.30
11083;DHT22;5595;50.186;8.468;2022-07-29T09:40:16;25.20;86.30
11083;DHT22;5595;50.186;8.468;2022-07-29T09:42:44;25.10;86.10
11083;DHT22;5595;50.186;8.468;2022-07-29T09:45:11;24.90;86.20
11083;DHT22;5595;50.186;8.468;2022-07-29T09:47:43;24.80;86.50
11083;DHT22;5595;50.186;8.468;2022-07-29T09:50:14;24.90;86.60
11083;DHT22;5595;50.186;8.468;2022-07-29T09:52:48;25.10;86.80
11083;DHT22;5595;50.186;8.468;2022-07-29T09:55:16;25.30;85.70
11083;DHT22;5595;50.186;8.468;2022-07-29T09:57:44;25.30;84.80
11083;DHT22;5595;50.186;8.468;2022-07-29T10:00:13;25.40;84.70
11083;DHT22;5595;50.186;8.468;2022-07-29T10:02:42;25.50;84.50
11083;DHT22;5595;50.186;8.468;2022-07-29T10:05:20;25.60;84.00
11083;DHT22;5595;50.186;8.468;2022-07-29T10:07:50;25.60;83.30
11083;DHT22;5595;50.186;8.468;2022-07-29T10:10:22;25.50;83.70
11083;DHT22;5595;50.186;8.468;2022-07-29T10:12:52;25.50;83.10
11083;DHT22;5595;50.186;8.468;2022-07-29T10:15:22;25.40;83.30
11083;DHT22;5595;50.186;8.468;2022-07-29T10:17:50;25.50;83.20
11083;DHT22;5595;50.186;8.468;2022-07-29T10:20:17;25.50;83.00
11083;DHT22;5595;50.186;8.468;2022-07-29T10:22:45;25.40;83.10
11083;DHT22;5595;50.186;8.468;2022-07-29T10:25:16;25.70;83.10
11083;DHT22;5595;50.186;8.468;2022-07-29T10:27:43;25.80;82.40
11083;DHT22;5595;50.186;8.468;2022-07-29T10:30:12;25.70;82.10
11083;DHT22;5595;50.186;8.468;2022-07-29T10:35:44;25.80;81.70
11083;DHT22;5595;50.186;8.468;2022-07-29T10:41:17;25.90;80.40
11083;DHT22;5595;50.186;8.468;2022-07-29T10:43:55;25.90;80.60
11083;DHT22;5595;50.186;8.468;2022-07-29T10:46:23;25.80;80.20
11083;DHT22;5595;50.186;8.468;2022-07-29T10:49:11;25.80;80.70
11083;DHT22;5595;50.186;8.468;2022-07-29T10:51:58;25.90;81.10
11083;DHT22;5595;50.186;8.468;2022-07-29T10:54:47;26.00;81.10
11083;DHT22;5595;50.186;8.468;2022-07-29T10:57:25;26.00;80.60
11083;DHT22;5595;50.186;8.468;2022-07-29T11:00:30;26.00;80.60
11083;DHT22;5595;50.186;8.468;2022-07-29T11:02:57;26.20;80.30
11083;DHT22;5595;50.186;8.468;2022-07-29T11:05:26;26.20;79.50
11083;DHT22;5595;50.186;8.468;2022-07-29T11:08:23;26.40;79.60
11083;DHT22;5595;50.186;8.468;2022-07-29T11:10:53;26.50;80.00
11083;DHT22;5595;50.186;8.468;2022-07-29T11:13:48;26.70;78.90
11083;DHT22;5595;50.186;8.468;2022-07-29T11:16:18;27.00;78.90
11083;DHT22;5595;50.186;8.468;2022-07-29T11:19:21;27.10;78.60
11083;DHT22;5595;50.186;8.468;2022-07-29T11:21:49;27.20;77.60
11083;DHT22;5595;50.186;8.468;2022-07-29T11:24:19;27.20;77.50
11083;DHT22;5595;50.186;8.468;2022-07-29T11:27:16;27.30;77.30
11083;DHT22;5595;50.186;8.468;2022-07-29T11:29:52;27.50;76.50
11083;DHT22;5595;50.186;8.468;2022-07-29T11:32:19;27.60;76.20
11083;DHT22;5595;50.186;8.468;2022-07-29T11:34:47;27.50;75.20
11083;DHT22;5595;50.186;8.468;2022-07-29T11:37:22;27.30;75.50
11083;DHT22;5595;50.186;8.468;2022-07-29T11:40:16;27.40;75.40
11083;DHT22;5595;50.186;8.468;2022-07-29T11:42:51;27.50;76.50
11083;DHT22;5595;50.186;8.468;2022-07-29T11:45:27;27.70;76.10
11083;DHT22;5595;50.186;8.468;2022-07-29T11:48:20;27.80;76.60
11083;DHT22;5595;50.186;8.468;2022-07-29T11:50:48;28.10;75.50
11083;DHT22;5595;50.186;8.468;2022-07-29T11:53:16;28.30;75.00
11083;DHT22;5595;50.186;8.468;2022-07-29T11:55:43;28.40;73.60
11083;DHT22;5595;50.186;8.468;2022-07-29T11:58:10;28.30;73.90
11083;DHT22;5595;50.186;8.468;2022-07-29T12:00:40;28.20;72.90
11083;DHT22;5595;50.186;8.468;2022-07-29T12:03:09;28.30;74.60
11083;DHT22;5595;50.186;8.468;2022-07-29T12:05:39;28.30;73.00
11083;DHT22;5595;50.186;8.468;2022-07-29T12:08:12;28.20;73.20
11083;DHT22;5595;50.186;8.468;2022-07-29T12:10:40;28.00;73.70
11083;DHT22;5595;50.186;8.468;2022-07-29T12:13:08;27.90;73.60
11083;DHT22;5595;50.186;8.468;2022-07-29T12:15:35;27.80;73.50
11083;DHT22;5595;50.186;8.468;2022-07-29T12:18:21;27.80;73.90
11083;DHT22;5595;50.186;8.468;2022-07-29T12:20:49;27.90;74.10
11083;DHT22;5595;50.186;8.468;2022-07-29T12:23:22;27.90;73.90
11083;DHT22;5595;50.186;8.468;2022-07-29T12:25:52;27.90;73.80
11083;DHT22;5595;50.186;8.468;2022-07-29T12:28:19;27.70;73.70
11083;DHT22;5595;50.186;8.468;2022-07-29T12:30:48;27.40;73.70
11083;DHT22;5595;50.186;8.468;2022-07-29T12:33:22;27.50;74.90
11083;DHT22;5595;50.186;8.468;2022-07-29T12:35:56;27.60;74.50
11083;DHT22;5595;50.186;8.468;2022-07-29T12:38:24;27.50;74.30
11083;DHT22;5595;50.186;8.468;2022-07-29T12:40:52;27.60;75.20
11083;DHT22;5595;50.186;8.468;2022-07-29T12:43:21;27.80;74.90
11083;DHT22;5595;50.186;8.468;2022-07-29T12:45:52;28.00;74.30
11083;DHT22;5595;50.186;8.468;2022-07-29T12:48:34;28.10;73.50
11083;DHT22;5595;50.186;8.468;2022-07-29T12:51:03;28.20;73.40
11083;DHT22;5595;50.186;8.468;2022-07-29T12:53:31;28.50;73.20
11083;DHT22;5595;50.186;8.468;2022-07-29T12:55:59;28.80;72.70
11083;DHT22;5595;50.186;8.468;2022-07-29T12:58:32;29.10;72.40
11083;DHT22;5595;50.186;8.468;2022-07-29T13:01:04;29.30;70.70
11083;DHT22;5595;50.186;8.468;2022-07-29T13:03:57;29.40;70.90
11083;DHT22;5595;50.186;8.468;2022-07-29T13:06:34;29.30;70.90
11083;DHT22;5595;50.186;8.468;2022-07-29T13:09:05;29.10;69.70
11083;DHT22;5595;50.186;8.468;2022-07-29T13:11:33;29.00;70.50
11083;DHT22;5595;50.186;8.468;2022-07-29T13:14:01;29.00;70.80
11083;DHT22;5595;50.186;8.468;2022-07-29T13:16:30;28.80;69.10
11083;DHT22;5595;50.186;8.468;2022-07-29T13:19:09;28.50;69.10
11083;DHT22;5595;50.186;8.468;2022-07-29T13:21:38;28.30;69.90
11083;DHT22;5595;50.186;8.468;2022-07-29T13:24:06;28.10;70.60
11083;DHT22;5595;50.186;8.468;2022-07-29T13:26:34;28.00;70.50
11083;DHT22;5595;50.186;8.468;2022-07-29T13:29:05;27.80;71.10
11083;DHT22;5595;50.186;8.468;2022-07-29T13:31:32;27.70;71.40
11083;DHT22;5595;50.186;8.468;2022-07-29T13:33:59;27.50;71.30
11083;DHT22;5595;50.186;8.468;2022-07-29T13:36:27;27.40;71.40
11083;DHT22;5595;50.186;8.468;2022-07-29T13:38:54;27.20;71.60
11083;DHT22;5595;50.186;8.468;2022-07-29T13:41:21;27.10;71.60
11083;DHT22;5595;50.186;8.468;2022-07-29T13:43:48;27.00;72.20
11083;DHT22;5595;50.186;8.468;2022-07-29T13:46:15;26.90;72.90
11083;DHT22;5595;50.186;8.468;2022-07-29T13:48:42;26.80;74.90
11083;DHT22;5595;50.186;8.468;2022-07-29T13:51:09;26.60;76.70
11083;DHT22;5595;50.186;8.468;2022-07-29T13:53:37;26.50;78.90
11083;DHT22;5595;50.186;8.468;2022-07-29T13:56:05;26.30;82.60
11083;DHT22;5595;50.186;8.468;2022-07-29T13:58:32;26.00;84.30
11083;DHT22;5595;50.186;8.468;2022-07-29T14:01:00;25.60;88.10
11083;DHT22;5595;50.186;8.468;2022-07-29T14:03:27;25.30;90.60
11083;DHT22;5595;50.186;8.468;2022-07-29T14:05:54;25.00;91.40
11083;DHT22;5595;50.186;8.468;2022-07-29T14:08:21;24.90;92.30
11083;DHT22;5595;50.186;8.468;2022-07-29T14:10:52;24.80;93.30
11083;DHT22;5595;50.186;8.468;2022-07-29T14:13:19;24.60;94.00
11083;DHT22;5595;50.186;8.468;2022-07-29T14:15:46;24.50;94.90
11083;DHT22;5595;50.186;8.468;2022-07-29T14:18:13;24.30;95.40
11083;DHT22;5595;50.186;8.468;2022-07-29T14:20:40;24.30;95.30
11083;DHT22;5595;50.186;8.468;2022-07-29T14:23:07;24.10;95.40
11083;DHT22;5595;50.186;8.468;2022-07-29T14:25:34;24.00;95.40
11083;DHT22;5595;50.186;8.468;2022-07-29T14:28:02;24.00;95.60
11083;DHT22;5595;50.186;8.468;2022-07-29T14:30:30;23.90;95.70
11083;DHT22;5595;50.186;8.468;2022-07-29T14:32:57;23.80;95.50
11083;DHT22;5595;50.186;8.468;2022-07-29T14:35:24;23.60;92.80
11083;DHT22;5595;50.186;8.468;2022-07-29T14:37:51;23.50;91.20
11083;DHT22;5595;50.186;8.468;2022-07-29T14:40:18;23.60;90.60
11083;DHT22;5595;50.186;8.468;2022-07-29T14:42:45;23.10;93.50
11083;DHT22;5595;50.186;8.468;2022-07-29T14:45:13;22.40;96.60
11083;DHT22;5595;50.186;8.468;2022-07-29T14:47:40;22.00;98.50
11083;DHT22;5595;50.186;8.468;2022-07-29T14:50:08;22.00;99.80
11083;DHT22;5595;50.186;8.468;2022-07-29T14:52:35;21.90;99.90
11083;DHT22;5595;50.186;8.468;2022-07-29T14:55:03;21.70;99.90
11083;DHT22;5595;50.186;8.468;2022-07-29T14:57:30;21.70;99.90
11083;DHT22;5595;50.186;8.468;2022-07-29T14:59:57;21.80;99.90
11083;DHT22;5595;50.186;8.468;2022-07-29T15:02:26;22.00;99.90
11083;DHT22;5595;50.186;8.468;2022-07-29T15:04:52;22.20;99.90
11083;DHT22;5595;50.186;8.468;2022-07-29T15:07:22;22.40;99.90
11083;DHT22;5595;50.186;8.468;2022-07-29T15:09:49;22.40;99.90
11083;DHT22;5595;50.186;8.468;2022-07-29T15:12:16;22.30;99.90
11083;DHT22;5595;50.186;8.468;2022-07-29T15:14:43;22.20;99.90
11083;DHT22;5595;50.186;8.468;2022-07-29T15:17:10;22.10;99.90
11083;DHT22;5595;50.186;8.468;2022-07-29T15:19:38;21.90;99.90
11083;DHT22;5595;50.186;8.468;2022-07-29T15:22:05;21.70;99.90
11083;DHT22;5595;50.186;8.468;2022-07-29T15:24:32;21.50;99.90
11083;DHT22;5595;50.186;8.468;2022-07-29T15:26:59;21.30;99.90
11083;DHT22;5595;50.186;8.468;2022-07-29T15:29:27;21.30;99.90
11083;DHT22;5595;50.186;8.468;2022-07-29T15:31:54;21.10;99.90
11083;DHT22;5595;50.186;8.468;2022-07-29T15:34:21;21.00;99.90
11083;DHT22;5595;50.186;8.468;2022-07-29T15:36:50;20.80;99.90
11083;DHT22;5595;50.186;8.468;2022-07-29T15:39:18;20.80;99.90
11083;DHT22;5595;50.186;8.468;2022-07-29T15:41:45;20.70;99.90
11083;DHT22;5595;50.186;8.468;2022-07-29T15:44:12;20.50;99.90
11083;DHT22;5595;50.186;8.468;2022-07-29T15:46:39;20.40;99.90
11083;DHT22;5595;50.186;8.468;2022-07-29T15:49:23;20.40;99.90
11083;DHT22;5595;50.186;8.468;2022-07-29T15:51:58;20.40;99.90
11083;DHT22;5595;50.186;8.468;2022-07-29T15:54:25;20.40;99.90
11083;DHT22;5595;50.186;8.468;2022-07-29T15:56:53;20.30;99.90
11083;DHT22;5595;50.186;8.468;2022-07-29T15:59:20;20.30;99.90
11083;DHT22;5595;50.186;8.468;2022-07-29T16:01:47;20.30;99.90
11083;DHT22;5595;50.186;8.468;2022-07-29T16:04:15;20.20;99.90
11083;DHT22;5595;50.186;8.468;2022-07-29T16:06:42;20.20;99.90
11083;DHT22;5595;50.186;8.468;2022-07-29T16:09:10;20.10;99.90